createdAt,value
2019-03-19T00:00:53.450Z,26.49
2019-03-19T00:03:27.991Z,26.49
2019-03-19T00:06:02.321Z,26.50
2019-03-19T00:08:36.762Z,26.49
2019-03-19T00:11:11.151Z,26.49
2019-03-19T00:13:45.669Z,26.48
2019-03-19T00:16:19.889Z,26.48
2019-03-19T00:18:54.128Z,26.48
2019-03-19T00:21:28.344Z,26.46
2019-03-19T00:24:02.511Z,26.44
2019-03-19T00:26:36.696Z,26.44
2019-03-19T00:29:10.921Z,26.42
2019-03-19T00:31:45.131Z,26.41
2019-03-19T00:34:19.367Z,26.43
2019-03-19T00:36:53.787Z,26.42
2019-03-19T00:39:27.991Z,26.40
2019-03-19T00:42:02.416Z,26.40
2019-03-19T00:44:36.616Z,26.38
2019-03-19T00:47:11.000Z,26.39
2019-03-19T00:49:45.049Z,26.37
2019-03-19T00:52:19.414Z,26.38
2019-03-19T00:54:53.657Z,26.37
2019-03-19T00:57:27.841Z,26.37
2019-03-19T01:00:02.151Z,26.36
2019-03-19T01:02:36.694Z,26.36
2019-03-19T01:05:11.185Z,26.36
2019-03-19T01:07:45.383Z,26.34
2019-03-19T01:10:19.574Z,26.35
2019-03-19T01:12:53.699Z,26.31
2019-03-19T01:15:28.188Z,26.32
2019-03-19T01:18:02.369Z,26.31
2019-03-19T01:20:36.489Z,26.31
2019-03-19T01:23:10.685Z,26.29
2019-03-19T01:25:55.167Z,26.31
2019-03-19T01:28:20.831Z,26.30
2019-03-19T01:30:55.116Z,26.31
2019-03-19T01:33:29.528Z,26.32
2019-03-19T01:36:03.645Z,26.31
2019-03-19T01:38:37.875Z,26.32
2019-03-19T01:41:12.082Z,26.28
2019-03-19T01:43:46.542Z,26.27
2019-03-19T01:46:20.989Z,26.25
2019-03-19T01:48:55.348Z,26.25
2019-03-19T01:51:29.369Z,26.23
2019-03-19T01:54:03.300Z,26.23
2019-03-19T01:56:37.443Z,26.23
2019-03-19T01:59:11.702Z,26.22
2019-03-19T02:01:46.372Z,26.22
2019-03-19T02:04:20.569Z,26.22
2019-03-19T02:06:54.950Z,26.20
2019-03-19T02:09:29.109Z,26.20
2019-03-19T02:12:03.523Z,26.19
2019-03-19T02:14:37.567Z,26.20
2019-03-19T02:17:12.772Z,26.18
2019-03-19T02:19:47.128Z,26.17
2019-03-19T02:22:21.438Z,26.17
2019-03-19T02:24:56.405Z,26.15
2019-03-19T02:27:30.689Z,26.15
2019-03-19T02:30:05.080Z,26.15
2019-03-19T02:32:39.700Z,26.14
2019-03-19T02:35:13.901Z,26.13
2019-03-19T02:37:48.332Z,26.14
2019-03-19T02:40:22.718Z,26.13
2019-03-19T02:42:57.297Z,26.14
2019-03-19T02:45:31.446Z,26.12
2019-03-19T02:48:05.765Z,26.13
2019-03-19T02:50:39.807Z,26.12
2019-03-19T02:53:13.732Z,26.11
2019-03-19T02:55:47.731Z,26.10
2019-03-19T02:58:22.074Z,26.11
2019-03-19T03:00:56.204Z,26.11
2019-03-19T03:03:30.291Z,26.14
2019-03-19T03:06:04.516Z,26.14
2019-03-19T03:08:38.621Z,26.10
2019-03-19T03:11:12.744Z,26.08
2019-03-19T03:13:47.078Z,26.06
2019-03-19T03:16:21.310Z,26.05
2019-03-19T03:18:55.247Z,26.03
2019-03-19T03:21:29.038Z,26.02
2019-03-19T03:24:02.863Z,26.02
2019-03-19T03:26:47.784Z,26.00
2019-03-19T03:29:11.885Z,26.01
2019-03-19T03:31:45.914Z,26.05
2019-03-19T03:34:20.640Z,26.04
2019-03-19T03:36:54.990Z,26.04
2019-03-19T03:39:28.955Z,26.03
2019-03-19T03:42:03.557Z,26.06
2019-03-19T03:44:37.722Z,26.02
2019-03-19T03:47:12.278Z,26.00
2019-03-19T03:49:46.436Z,25.98
2019-03-19T03:52:20.690Z,25.97
2019-03-19T03:54:54.761Z,25.97
2019-03-19T03:57:29.140Z,25.96
2019-03-19T04:00:03.393Z,25.96
2019-03-19T04:02:37.928Z,25.95
2019-03-19T04:05:12.689Z,25.94
2019-03-19T04:07:47.062Z,25.94
2019-03-19T04:10:21.546Z,25.91
2019-03-19T04:12:55.718Z,25.84
2019-03-19T04:15:30.061Z,25.80
2019-03-19T04:18:04.173Z,25.79
2019-03-19T04:20:38.699Z,25.78
2019-03-19T04:23:12.900Z,25.77
2019-03-19T04:25:47.284Z,25.75
2019-03-19T04:28:21.340Z,25.74
2019-03-19T04:30:55.347Z,25.74
2019-03-19T04:33:29.530Z,25.73
2019-03-19T04:36:03.920Z,25.73
2019-03-19T04:38:38.165Z,25.73
2019-03-19T04:41:13.484Z,25.86
2019-03-19T04:43:47.711Z,25.90
2019-03-19T04:46:22.018Z,25.91
2019-03-19T04:48:56.252Z,25.93
2019-03-19T04:51:31.616Z,25.92
2019-03-19T04:54:06.984Z,25.93
2019-03-19T04:56:41.420Z,25.93
2019-03-19T04:59:15.597Z,25.93
2019-03-19T05:01:49.812Z,25.94
2019-03-19T05:04:23.974Z,25.95
2019-03-19T05:06:58.087Z,25.89
2019-03-19T05:09:32.549Z,25.92
2019-03-19T05:12:06.987Z,25.93
2019-03-19T05:14:42.540Z,25.91
2019-03-19T05:17:16.734Z,25.90
2019-03-19T05:19:51.280Z,25.88
2019-03-19T05:22:25.765Z,25.88
2019-03-19T05:24:59.887Z,25.89
2019-03-19T05:27:37.653Z,25.89
2019-03-19T05:30:10.879Z,25.92
2019-03-19T05:32:45.041Z,25.93
2019-03-19T05:35:19.080Z,25.94
2019-03-19T05:37:53.313Z,25.94
2019-03-19T05:40:27.507Z,25.95
2019-03-19T05:43:01.725Z,25.94
2019-03-19T05:45:35.786Z,25.94
2019-03-19T05:48:10.059Z,25.94
2019-03-19T05:50:44.415Z,25.95
2019-03-19T05:53:18.618Z,25.95
2019-03-19T05:55:52.987Z,25.97
2019-03-19T05:58:27.218Z,25.99
2019-03-19T06:01:01.707Z,25.99
2019-03-19T06:03:35.868Z,25.99
2019-03-19T06:06:10.114Z,25.98
2019-03-19T06:08:44.330Z,25.98
2019-03-19T06:11:18.967Z,25.99
2019-03-19T06:13:53.077Z,25.98
2019-03-19T06:16:27.492Z,25.97
2019-03-19T06:19:01.670Z,26.01
2019-03-19T06:21:36.292Z,26.01
2019-03-19T06:24:10.607Z,25.99
2019-03-19T06:26:44.914Z,26.01
2019-03-19T06:29:19.059Z,25.99
2019-03-19T06:31:53.520Z,26.01
2019-03-19T06:34:27.724Z,26.03
2019-03-19T06:37:02.261Z,26.01
2019-03-19T06:39:40.442Z,25.98
2019-03-19T06:42:14.856Z,25.98
2019-03-19T06:44:48.972Z,25.98
2019-03-19T06:47:23.222Z,25.98
2019-03-19T06:49:57.422Z,26.06
2019-03-19T06:52:31.657Z,26.13
2019-03-19T06:55:05.926Z,26.09
2019-03-19T06:57:39.908Z,26.11
2019-03-19T07:00:17.499Z,26.14
2019-03-19T07:02:51.476Z,26.12
2019-03-19T07:05:25.864Z,26.07
2019-03-19T07:08:00.099Z,26.07
2019-03-19T07:10:34.456Z,26.08
2019-03-19T07:13:08.655Z,26.08
2019-03-19T07:15:43.276Z,26.07
2019-03-19T07:18:17.511Z,26.06
2019-03-19T07:20:51.704Z,26.08
2019-03-19T07:23:25.690Z,26.07
2019-03-19T07:26:00.281Z,26.06
2019-03-19T07:28:34.366Z,26.05
2019-03-19T07:31:08.750Z,26.08
2019-03-19T07:33:42.983Z,26.07
2019-03-19T07:36:17.205Z,26.06
2019-03-19T07:38:51.392Z,26.07
2019-03-19T07:41:25.499Z,26.07
2019-03-19T07:43:59.681Z,26.09
2019-03-19T07:46:34.065Z,26.10
2019-03-19T07:49:08.247Z,26.10
2019-03-19T07:51:42.717Z,26.17
2019-03-19T07:54:16.825Z,26.19
2019-03-19T07:56:51.266Z,26.19
2019-03-19T07:59:25.318Z,26.22
2019-03-19T08:01:59.567Z,26.23
2019-03-19T08:04:33.735Z,26.23
2019-03-19T08:07:09.118Z,26.26
2019-03-19T08:09:43.734Z,26.24
2019-03-19T08:12:18.920Z,26.25
2019-03-19T08:14:53.050Z,26.28
2019-03-19T08:17:27.498Z,26.24
2019-03-19T08:20:02.049Z,26.29
2019-03-19T08:22:36.307Z,26.27
2019-03-19T08:25:11.759Z,26.26
2019-03-19T08:27:48.637Z,26.24
2019-03-19T08:30:25.324Z,26.26
2019-03-19T08:33:02.400Z,26.26
2019-03-19T08:35:39.182Z,26.26
2019-03-19T08:38:13.510Z,26.28
2019-03-19T08:40:50.996Z,26.26
2019-03-19T08:43:30.925Z,26.28
2019-03-19T08:46:06.966Z,26.31
2019-03-19T08:48:42.354Z,26.33
2019-03-19T08:51:17.412Z,26.35
2019-03-19T08:53:54.122Z,26.37
2019-03-19T08:56:32.791Z,26.39
2019-03-19T08:59:10.190Z,26.41
2019-03-19T09:01:44.667Z,26.41
2019-03-19T09:04:20.119Z,26.43
2019-03-19T09:06:55.286Z,26.44
2019-03-19T09:09:30.192Z,26.45
2019-03-19T09:12:04.479Z,26.45
2019-03-19T09:14:38.770Z,26.48
2019-03-19T09:17:14.324Z,26.48
2019-03-19T09:19:49.633Z,26.50
2019-03-19T09:22:29.576Z,26.50
2019-03-19T09:24:59.836Z,26.52
2019-03-19T09:27:34.243Z,26.56
2019-03-19T09:30:09.473Z,26.55
2019-03-19T09:32:43.659Z,26.55
2019-03-19T09:35:19.075Z,26.54
2019-03-19T09:37:58.386Z,26.55
2019-03-19T09:40:29.526Z,26.56
2019-03-19T09:43:03.442Z,26.56
2019-03-19T09:45:38.462Z,26.57
2019-03-19T09:48:12.470Z,26.57
2019-03-19T09:50:46.466Z,26.58
2019-03-19T09:53:20.620Z,26.60
2019-03-19T09:55:55.132Z,26.62
2019-03-19T09:58:29.496Z,26.61
2019-03-19T10:01:03.561Z,26.62
2019-03-19T10:03:37.821Z,26.62
2019-03-19T10:06:14.461Z,26.66
2019-03-19T10:08:49.052Z,26.64
2019-03-19T10:11:23.345Z,26.65
2019-03-19T10:13:57.495Z,26.68
2019-03-19T10:16:33.345Z,26.69
2019-03-19T10:19:07.638Z,26.70
2019-03-19T10:21:42.043Z,26.71
2019-03-19T10:24:16.067Z,26.75
2019-03-19T10:26:50.817Z,26.80
2019-03-19T10:29:24.825Z,26.82
2019-03-19T10:31:59.332Z,26.81
2019-03-19T10:34:33.459Z,26.79
2019-03-19T10:37:07.882Z,26.82
2019-03-19T10:39:42.142Z,26.83
2019-03-19T10:42:16.544Z,26.86
2019-03-19T10:44:50.916Z,26.86
2019-03-19T10:47:25.352Z,26.87
2019-03-19T10:49:59.636Z,26.88
2019-03-19T10:52:34.261Z,26.91
2019-03-19T10:55:09.104Z,26.90
2019-03-19T10:57:43.383Z,26.88
2019-03-19T11:00:20.391Z,26.86
2019-03-19T11:02:55.025Z,26.86
2019-03-19T11:05:29.197Z,26.86
2019-03-19T11:08:03.435Z,26.87
2019-03-19T11:10:37.735Z,26.88
2019-03-19T11:13:12.167Z,26.87
2019-03-19T11:15:46.562Z,26.89
2019-03-19T11:18:20.639Z,26.90
2019-03-19T11:21:03.725Z,26.92
2019-03-19T11:23:33.402Z,26.93
2019-03-19T11:26:07.814Z,26.94
2019-03-19T11:28:42.236Z,26.94
2019-03-19T11:31:16.510Z,26.98
2019-03-19T11:33:50.900Z,26.96
2019-03-19T11:36:25.064Z,26.98
2019-03-19T11:38:59.574Z,26.99
2019-03-19T11:41:33.753Z,26.99
2019-03-19T11:44:08.503Z,26.99
2019-03-19T11:46:42.837Z,27.01
2019-03-19T11:49:17.185Z,27.04
2019-03-19T11:51:52.449Z,27.05
2019-03-19T11:54:27.117Z,27.06
2019-03-19T11:57:01.313Z,27.08
2019-03-19T11:59:35.811Z,27.08
2019-03-19T12:02:10.317Z,27.11
2019-03-19T12:04:44.677Z,27.11
2019-03-19T12:07:18.910Z,27.14
2019-03-19T12:09:53.265Z,27.15
2019-03-19T12:12:27.855Z,27.18
2019-03-19T12:15:02.187Z,27.22
2019-03-19T12:17:36.424Z,27.25
2019-03-19T12:20:10.715Z,27.26
2019-03-19T12:22:45.456Z,27.29
2019-03-19T12:25:19.397Z,27.30
2019-03-19T12:27:53.767Z,27.31
2019-03-19T12:30:28.088Z,27.34
2019-03-19T12:33:02.440Z,27.35
2019-03-19T12:35:36.652Z,27.37
2019-03-19T12:38:11.013Z,27.40
2019-03-19T12:40:45.339Z,27.39
2019-03-19T12:43:19.738Z,27.41
2019-03-19T12:45:54.526Z,27.42
2019-03-19T12:48:28.731Z,27.39
2019-03-19T12:51:03.011Z,27.39
2019-03-19T12:53:37.471Z,27.39
2019-03-19T12:56:11.854Z,27.38
2019-03-19T12:58:46.285Z,27.40
2019-03-19T13:01:20.616Z,27.38
2019-03-19T13:03:54.659Z,27.41
2019-03-19T13:06:28.951Z,27.41
2019-03-19T13:09:03.298Z,27.42
2019-03-19T13:11:37.701Z,27.41
2019-03-19T13:14:12.193Z,27.43
2019-03-19T13:16:46.375Z,27.45
2019-03-19T13:19:20.688Z,27.42
2019-03-19T13:21:55.088Z,27.37
2019-03-19T13:24:29.234Z,27.33
2019-03-19T13:27:03.344Z,27.31
2019-03-19T13:29:37.304Z,27.31
2019-03-19T13:32:11.625Z,27.30
2019-03-19T13:34:46.085Z,27.32
2019-03-19T13:37:20.343Z,27.31
2019-03-19T13:39:54.573Z,27.31
2019-03-19T13:42:28.780Z,27.31
2019-03-19T13:45:03.036Z,27.22
2019-03-19T13:47:37.576Z,27.09
2019-03-19T13:50:11.707Z,27.03
2019-03-19T13:52:46.120Z,27.01
2019-03-19T13:55:20.672Z,26.99
2019-03-19T13:57:55.029Z,26.90
2019-03-19T14:00:29.109Z,26.91
2019-03-19T14:03:03.695Z,26.94
2019-03-19T14:05:37.916Z,26.94
2019-03-19T14:08:12.159Z,26.92
2019-03-19T14:10:46.453Z,26.92
2019-03-19T14:13:20.801Z,26.90
2019-03-19T14:15:55.107Z,27.48
2019-03-19T14:18:29.607Z,27.52
2019-03-19T14:21:03.756Z,27.49
2019-03-19T14:23:38.438Z,27.50
2019-03-19T14:26:12.941Z,27.50
2019-03-19T14:28:47.210Z,27.54
2019-03-19T14:31:21.609Z,27.37
2019-03-19T14:33:57.024Z,27.25
2019-03-19T14:39:53.531Z,27.11
2019-03-19T14:42:28.111Z,27.07
2019-03-19T14:45:03.381Z,27.05
2019-03-19T14:47:37.680Z,27.04
2019-03-19T14:50:13.051Z,27.00
2019-03-19T14:52:47.425Z,26.99
2019-03-19T14:55:23.027Z,26.98
2019-03-19T14:57:57.489Z,26.98
2019-03-19T15:00:31.893Z,26.97
2019-03-19T15:03:06.394Z,26.96
2019-03-19T15:05:40.632Z,26.95
2019-03-19T15:08:15.427Z,26.94
2019-03-19T15:10:49.790Z,26.94
2019-03-19T15:13:24.157Z,26.93
2019-03-19T15:15:58.672Z,26.93
2019-03-19T15:18:33.072Z,26.94
2019-03-19T15:21:07.444Z,27.05
2019-03-19T15:23:41.910Z,26.99
2019-03-19T15:26:16.197Z,26.96
2019-03-19T15:28:50.852Z,26.95
2019-03-19T15:31:29.833Z,26.95
2019-03-19T15:34:01.215Z,26.95
2019-03-19T15:36:35.613Z,26.94
2019-03-19T15:39:11.766Z,26.95
2019-03-19T15:41:46.043Z,27.41
2019-03-19T15:44:20.424Z,27.55
2019-03-19T15:46:54.755Z,27.62
2019-03-19T15:49:37.887Z,27.48
2019-03-19T15:52:04.978Z,27.30
2019-03-19T15:54:39.792Z,27.21
2019-03-19T15:57:14.395Z,27.15
2019-03-19T15:59:49.176Z,27.12
2019-03-19T16:02:25.413Z,27.11
2019-03-19T16:05:00.849Z,27.09
2019-03-19T16:07:35.682Z,27.06
2019-03-19T16:10:10.299Z,27.07
2019-03-19T16:12:44.658Z,27.04
2019-03-19T16:15:19.707Z,27.00
2019-03-19T16:17:53.977Z,27.03
2019-03-19T16:20:28.215Z,27.04
2019-03-19T16:23:02.364Z,27.01
2019-03-19T16:25:36.658Z,27.04
2019-03-19T16:28:11.107Z,27.01
2019-03-19T16:30:45.048Z,27.00
2019-03-19T16:33:19.567Z,26.99
2019-03-19T16:35:54.135Z,26.98
2019-03-19T16:38:28.621Z,26.97
2019-03-19T16:41:03.378Z,26.99
2019-03-19T16:43:37.399Z,27.02
2019-03-19T16:46:11.809Z,27.00
2019-03-19T16:48:46.262Z,27.01
2019-03-19T16:51:20.711Z,27.04
2019-03-19T16:53:55.210Z,27.03
2019-03-19T16:56:30.584Z,27.03
2019-03-19T16:59:04.666Z,27.04
2019-03-19T17:01:39.184Z,27.00
2019-03-19T17:04:13.555Z,27.01
2019-03-19T17:06:47.932Z,27.01
2019-03-19T17:09:22.425Z,27.01
2019-03-19T17:11:56.884Z,27.01
2019-03-19T17:14:31.326Z,27.03
2019-03-19T17:17:05.622Z,27.01
2019-03-19T17:19:40.047Z,27.00
2019-03-19T17:22:14.140Z,27.01
2019-03-19T17:24:48.740Z,27.01
2019-03-19T17:27:23.890Z,27.00
2019-03-19T17:29:58.363Z,27.01
2019-03-19T17:32:32.676Z,27.00
2019-03-19T17:35:10.524Z,27.01
2019-03-19T17:37:44.969Z,27.01
2019-03-19T17:40:19.356Z,27.01
2019-03-19T17:42:53.834Z,27.01
2019-03-19T17:45:28.147Z,27.01
2019-03-19T17:48:02.443Z,26.99
2019-03-19T17:50:36.808Z,27.00
2019-03-19T17:53:11.409Z,27.02
2019-03-19T17:55:45.412Z,27.00
2019-03-19T17:58:19.799Z,27.00
2019-03-19T18:00:54.400Z,27.01
2019-03-19T18:03:28.606Z,27.00
2019-03-19T18:06:03.023Z,26.98
2019-03-19T18:08:37.315Z,27.00
2019-03-19T18:11:11.375Z,26.99
2019-03-19T18:13:45.919Z,26.98
2019-03-19T18:16:20.139Z,26.98
2019-03-19T18:18:54.280Z,26.99
2019-03-19T18:21:28.572Z,26.98
2019-03-19T18:24:03.080Z,26.99
2019-03-19T18:26:37.379Z,26.97
2019-03-19T18:29:11.648Z,26.98
2019-03-19T18:31:45.903Z,26.98
2019-03-19T18:34:20.331Z,26.96
2019-03-19T18:36:54.451Z,26.99
2019-03-19T18:39:29.282Z,27.52
2019-03-19T18:42:03.608Z,27.46
2019-03-19T18:44:37.787Z,27.29
2019-03-19T18:47:12.262Z,27.22
2019-03-19T18:49:46.565Z,27.19
2019-03-19T18:52:20.671Z,27.10
2019-03-19T18:54:54.902Z,27.07
2019-03-19T18:57:29.431Z,27.06
2019-03-19T19:00:03.823Z,27.06
2019-03-19T19:02:48.725Z,27.07
2019-03-19T19:05:14.624Z,27.03
2019-03-19T19:07:49.152Z,27.03
2019-03-19T19:10:23.413Z,27.01
2019-03-19T19:12:57.512Z,26.97
2019-03-19T19:15:31.746Z,27.01
2019-03-19T19:18:06.042Z,27.10
2019-03-19T19:20:40.152Z,27.04
2019-03-19T19:23:14.642Z,27.03
2019-03-19T19:25:49.055Z,27.00
2019-03-19T19:28:23.231Z,27.00
2019-03-19T19:30:57.984Z,26.93
2019-03-19T19:33:32.258Z,26.93
2019-03-19T19:36:06.477Z,26.93
2019-03-19T19:38:40.689Z,26.92
2019-03-19T19:41:15.170Z,26.90
2019-03-19T19:43:49.585Z,26.91
2019-03-19T19:46:23.809Z,26.89
2019-03-19T19:48:58.469Z,26.88
2019-03-19T19:51:33.011Z,26.88
2019-03-19T19:54:07.586Z,26.88
2019-03-19T19:56:41.688Z,26.87
2019-03-19T19:59:15.763Z,26.87
2019-03-19T20:01:50.148Z,26.86
2019-03-19T20:04:24.299Z,26.85
2019-03-19T20:06:58.465Z,26.84
2019-03-19T20:09:32.643Z,26.82
2019-03-19T20:12:07.009Z,26.84
2019-03-19T20:14:41.462Z,26.81
2019-03-19T20:17:15.890Z,26.80
2019-03-19T20:19:50.310Z,26.79
2019-03-19T20:22:24.696Z,26.77
2019-03-19T20:24:59.399Z,26.74
2019-03-19T20:27:35.427Z,26.73
2019-03-19T20:30:11.660Z,26.72
2019-03-19T20:32:46.377Z,26.70
2019-03-19T20:35:39.515Z,26.67
2019-03-19T20:38:13.896Z,26.66
2019-03-19T20:40:49.096Z,26.64
2019-03-19T20:43:23.409Z,26.62
2019-03-19T20:45:57.516Z,26.61
2019-03-19T20:48:32.228Z,26.61
2019-03-19T20:51:07.022Z,26.59
2019-03-19T20:53:41.281Z,26.57
2019-03-19T20:56:15.760Z,26.57
2019-03-19T20:58:50.035Z,26.53
2019-03-19T21:01:24.132Z,26.56
2019-03-19T21:03:58.674Z,26.53
2019-03-19T21:06:32.584Z,26.52
2019-03-19T21:09:08.001Z,26.51
2019-03-19T21:11:42.283Z,26.51
2019-03-19T21:14:16.864Z,26.50
2019-03-19T21:16:51.113Z,26.53
2019-03-19T21:19:25.548Z,26.51
2019-03-19T21:22:00.692Z,26.48
2019-03-19T21:24:35.160Z,26.48
2019-03-19T21:27:09.234Z,26.46
2019-03-19T21:29:43.664Z,26.46
2019-03-19T21:32:18.285Z,26.42
2019-03-19T21:34:52.919Z,26.43
2019-03-19T21:37:27.684Z,26.43
2019-03-19T21:40:02.128Z,26.40
2019-03-19T21:42:36.363Z,26.40
2019-03-19T21:45:11.543Z,26.39
2019-03-19T21:47:47.089Z,26.39
2019-03-19T21:50:21.681Z,26.38
2019-03-19T21:52:55.956Z,26.36
2019-03-19T21:55:30.299Z,26.36
2019-03-19T21:58:04.957Z,26.35
2019-03-19T22:00:39.378Z,26.33
2019-03-19T22:03:13.570Z,26.33
2019-03-19T22:05:47.533Z,26.31
2019-03-19T22:08:21.791Z,26.29
2019-03-19T22:10:55.913Z,26.32
2019-03-19T22:13:30.089Z,26.30
2019-03-19T22:16:04.451Z,26.29
2019-03-19T22:18:38.579Z,26.28
2019-03-19T22:21:12.788Z,26.25
2019-03-19T22:23:47.352Z,26.25
2019-03-19T22:26:21.874Z,26.24
2019-03-19T22:28:56.245Z,26.24
2019-03-19T22:31:30.751Z,26.22
2019-03-19T22:34:13.686Z,26.21
2019-03-19T22:36:41.187Z,26.22
2019-03-19T22:39:15.375Z,26.22
2019-03-19T22:41:49.717Z,26.20
2019-03-19T22:44:24.049Z,26.19
2019-03-19T22:46:58.228Z,26.18
2019-03-19T22:49:32.258Z,26.17
2019-03-19T22:52:06.618Z,26.15
2019-03-19T22:54:40.845Z,26.14
2019-03-19T22:57:14.999Z,26.13
2019-03-19T22:59:49.354Z,26.14
2019-03-19T23:02:24.148Z,26.13
2019-03-19T23:04:58.383Z,26.12
2019-03-19T23:07:32.796Z,26.10
2019-03-19T23:10:07.569Z,26.09
2019-03-19T23:12:42.254Z,26.06
2019-03-19T23:15:16.772Z,26.06
2019-03-19T23:17:51.438Z,26.06
2019-03-19T23:20:25.681Z,26.05
2019-03-19T23:22:59.975Z,26.03
2019-03-19T23:25:34.181Z,26.01
2019-03-19T23:28:08.436Z,26.00
2019-03-19T23:30:43.012Z,25.99
2019-03-19T23:33:17.538Z,25.97
2019-03-19T23:35:51.793Z,25.97
2019-03-19T23:38:26.185Z,25.97
2019-03-19T23:41:00.421Z,25.95
2019-03-19T23:43:34.865Z,25.93
2019-03-19T23:46:09.121Z,25.93
2019-03-19T23:48:43.234Z,25.91
2019-03-19T23:51:17.479Z,25.91
2019-03-19T23:53:51.727Z,25.90
2019-03-19T23:56:26.095Z,25.90
2019-03-19T23:59:00.655Z,25.89
